Time;durP1;ratioP1;P1;durP2;ratioP2;P2;SDS_P1;SDS_P2;PMS_P1;PMS_P2;Temp;Humidity;BMP_temperature;BMP_pressure;BME280_temperature;BME280_humidity;BME280_pressure;Samples;Min_cycle;Max_cycle;Signal;HPM_P1;HPM_P2
2021/09/21 00:00:40;;;;;;;21.98;10.32;;;;;;;10.29;94.03;96817.25;5034464;28;20029;-84
2021/09/21 00:03:06;;;;;;;23.10;10.25;;;;;;;10.33;93.33;96816.59;5017592;28;20113;-84
2021/09/21 00:05:31;;;;;;;22.52;9.73;;;;;;;10.54;92.59;96825.84;5035915;28;20093;-83
2021/09/21 00:07:57;;;;;;;20.60;9.70;;;;;;;10.54;92.33;96828.47;5019711;28;20030;-84
2021/09/21 00:10:22;;;;;;;21.10;9.95;;;;;;;10.58;91.88;96826.22;5033582;28;20073;-84
2021/09/21 00:12:48;;;;;;;20.67;9.93;;;;;;;10.67;91.89;96825.72;5019047;28;20037;-81
2021/09/21 00:15:20;;;;;;;18.60;9.02;;;;;;;10.78;91.96;96830.22;5035104;28;20086;-82
2021/09/21 00:17:47;;;;;;;22.15;9.93;;;;;;;10.75;91.47;96825.38;5027941;28;20057;-82
2021/09/21 00:20:14;;;;;;;17.83;9.18;;;;;;;10.73;90.73;96819.56;5030538;28;20034;-80
2021/09/21 00:22:41;;;;;;;19.48;9.20;;;;;;;10.82;90.68;96819.28;5015032;28;20133;-79
2021/09/21 00:25:08;;;;;;;17.77;9.57;;;;;;;10.92;90.19;96816.88;5027731;28;20030;-80
2021/09/21 00:27:34;;;;;;;18.85;9.23;;;;;;;10.92;90.20;96819.50;5030934;28;20092;-81
2021/09/21 00:29:59;;;;;;;19.40;9.90;;;;;;;10.94;90.29;96817.47;5020716;28;20046;-81
2021/09/21 00:32:27;;;;;;;20.63;9.95;;;;;;;11.08;89.05;96818.88;5018963;28;20455;-81
2021/09/21 00:34:53;;;;;;;20.38;9.18;;;;;;;11.07;89.53;96825.19;5019326;28;20061;-82
2021/09/21 00:37:20;;;;;;;17.58;8.73;;;;;;;11.02;87.99;96823.22;5020571;28;20080;-80
2021/09/21 00:39:46;;;;;;;16.13;8.18;;;;;;;11.09;87.63;96820.53;5026286;28;20461;-81
2021/09/21 00:42:14;;;;;;;19.13;9.45;;;;;;;11.04;87.28;96823.03;5029897;28;20053;-79
2021/09/21 00:44:40;;;;;;;16.95;8.27;;;;;;;11.17;88.09;96817.56;5032391;28;20046;-80
2021/09/21 00:47:08;;;;;;;15.80;8.38;;;;;;;11.43;85.71;96826.13;5020103;28;20038;-81
2021/09/21 00:49:36;;;;;;;19.00;9.27;;;;;;;11.38;85.76;96823.34;5020504;28;20140;-80
2021/09/21 00:52:03;;;;;;;17.08;8.70;;;;;;;11.30;85.46;96827.91;5004832;28;20096;-83
2021/09/21 00:54:30;;;;;;;17.48;9.07;;;;;;;11.57;83.77;96823.06;5023750;28;20045;-84
2021/09/21 00:56:59;;;;;;;18.63;9.20;;;;;;;11.70;83.22;96827.31;5026747;28;20034;-81
2021/09/21 00:59:24;;;;;;;16.83;8.52;;;;;;;11.48;84.39;96829.69;5019061;28;20018;-82
2021/09/21 01:01:50;;;;;;;17.30;8.63;;;;;;;11.22;84.75;96824.78;5037074;28;20025;-86
2021/09/21 01:04:16;;;;;;;14.85;7.63;;;;;;;11.12;85.04;96816.63;5037165;28;20090;-86
2021/09/21 01:06:43;;;;;;;18.77;8.05;;;;;;;11.14;84.88;96817.19;5020140;28;20034;-86
2021/09/21 01:09:15;;;;;;;16.37;8.70;;;;;;;11.18;84.65;96821.78;5037151;28;20017;-85
2021/09/21 01:11:47;;;;;;;18.30;8.85;;;;;;;11.11;85.28;96822.91;5023872;28;20291;-84
2021/09/21 01:14:12;;;;;;;16.83;8.18;;;;;;;11.25;85.01;96819.88;5022295;28;20096;-83
2021/09/21 01:16:40;;;;;;;17.55;7.78;;;;;;;11.35;83.63;96829.06;5025581;28;20076;-80
2021/09/21 01:19:06;;;;;;;14.73;7.78;;;;;;;11.33;84.32;96831.91;5026479;28;20057;-79
2021/09/21 01:21:35;;;;;;;16.60;8.48;;;;;;;11.23;84.87;96821.94;5024705;28;20045;-83
2021/09/21 01:24:01;;;;;;;16.90;8.15;;;;;;;11.35;83.63;96821.94;5019537;28;20510;-82
2021/09/21 01:26:26;;;;;;;15.50;8.35;;;;;;;11.26;84.46;96825.97;5023130;28;20073;-80
2021/09/21 01:28:52;;;;;;;15.65;8.15;;;;;;;11.15;84.15;96827.53;5025085;28;20052;-80
2021/09/21 01:31:20;;;;;;;17.50;8.50;;;;;;;11.14;84.75;96820.66;5020695;28;20426;-80
2021/09/21 01:33:48;;;;;;;15.73;8.38;;;;;;;11.26;85.71;96816.22;5018794;28;20517;-80
2021/09/21 01:36:14;;;;;;;15.60;8.37;;;;;;;11.16;85.08;96820.44;5018662;28;20042;-79
2021/09/21 01:38:43;;;;;;;17.30;8.20;;;;;;;11.20;85.85;96816.31;5019017;28;20038;-82
2021/09/21 01:41:09;;;;;;;16.73;7.50;;;;;;;11.23;85.59;96821.13;5018396;28;20034;-82
2021/09/21 01:43:34;;;;;;;17.98;8.18;;;;;;;11.15;85.82;96824.88;5019130;28;20102;-82
2021/09/21 01:46:00;;;;;;;18.17;8.23;;;;;;;11.11;85.50;96815.81;5018548;28;20145;-82
2021/09/21 01:48:29;;;;;;;16.92;8.35;;;;;;;11.16;85.99;96818.59;5019871;28;20084;-83
2021/09/21 01:50:59;;;;;;;15.57;7.75;;;;;;;11.25;85.76;96814.63;5018159;28;20093;-82
2021/09/21 01:53:53;;;;;;;16.90;8.52;;;;;;;11.33;85.79;96820.59;5037672;28;20036;-81
2021/09/21 01:59:04;;;;;;;16.25;7.78;;;;;;;11.63;83.29;96831.88;5017973;28;20529;-80
2021/09/21 02:01:30;;;;;;;17.85;8.00;;;;;;;11.52;83.90;96830.84;5002663;28;20042;-80
2021/09/21 02:03:58;;;;;;;14.95;8.02;;;;;;;11.45;83.60;96829.31;5017495;28;20128;-81
2021/09/21 02:06:33;;;;;;;16.52;8.18;;;;;;;11.39;84.92;96831.03;5015499;28;20052;-77
2021/09/21 02:08:59;;;;;;;16.02;7.97;;;;;;;11.35;84.63;96835.13;4998080;28;20038;-77
2021/09/21 02:11:26;;;;;;;15.00;7.63;;;;;;;11.28;85.09;96834.44;5015457;28;20121;-77
2021/09/21 02:13:56;;;;;;;17.83;8.48;;;;;;;11.35;85.08;96829.06;5015550;28;20046;-77
2021/09/21 02:16:22;;;;;;;17.23;8.13;;;;;;;11.37;85.29;96830.44;5029348;28;20049;-76
2021/09/21 02:18:48;;;;;;;18.17;8.55;;;;;;;11.36;84.83;96830.69;5017208;28;20033;-75
2021/09/21 02:21:13;;;;;;;17.38;8.63;;;;;;;11.34;85.34;96827.44;5020506;28;20048;-74
2021/09/21 02:23:39;;;;;;;17.85;8.70;;;;;;;11.23;85.68;96827.19;5024364;28;20366;-77
2021/09/21 02:26:04;;;;;;;17.50;8.63;;;;;;;11.27;85.26;96828.34;4999342;28;20085;-76
2021/09/21 02:28:31;;;;;;;17.95;8.10;;;;;;;11.32;85.30;96830.31;4998264;28;20073;-77
2021/09/21 02:30:57;;;;;;;17.23;8.30;;;;;;;11.30;85.54;96832.38;5016136;28;20041;-77
2021/09/21 02:33:23;;;;;;;14.35;7.53;;;;;;;11.34;84.39;96827.44;5015138;28;20482;-76
2021/09/21 02:35:48;;;;;;;15.43;7.90;;;;;;;11.41;85.41;96838.69;5015619;28;20030;-77
2021/09/21 02:38:14;;;;;;;17.17;8.27;;;;;;;11.42;85.39;96843.75;4997822;28;20042;-76
2021/09/21 02:40:40;;;;;;;14.85;7.78;;;;;;;11.34;85.29;96848.53;4998712;28;20548;-76
2021/09/21 02:43:08;;;;;;;16.17;8.50;;;;;;;11.61;84.70;96856.84;5018662;28;20050;-83
2021/09/21 02:45:38;;;;;;;16.73;8.65;;;;;;;11.66;82.19;96847.22;5019156;28;20041;-83
2021/09/21 02:48:06;;;;;;;15.95;7.85;;;;;;;11.50;82.74;96847.88;5001575;28;20034;-83
2021/09/21 02:50:32;;;;;;;17.70;7.85;;;;;;;11.65;82.17;96843.00;5019471;28;20026;-83
2021/09/21 02:52:58;;;;;;;14.68;8.23;;;;;;;11.50;82.56;96846.03;5029007;28;20103;-83
2021/09/21 02:55:23;;;;;;;16.50;7.85;;;;;;;11.46;82.38;96846.72;5005062;28;20062;-83
2021/09/21 02:57:49;;;;;;;16.15;7.78;;;;;;;11.37;82.74;96848.88;5020616;28;20216;-83
2021/09/21 03:00:22;;;;;;;18.30;8.60;;;;;;;11.34;83.12;96859.06;5019403;28;20172;-84
2021/09/21 03:02:49;;;;;;;15.50;7.65;;;;;;;11.63;81.88;96857.44;5012401;28;20056;-83
2021/09/21 03:05:23;;;;;;;17.40;8.25;;;;;;;11.41;82.26;96857.13;5036008;28;20022;-83
2021/09/21 03:07:55;;;;;;;15.98;8.27;;;;;;;11.26;82.87;96868.09;5033277;28;20270;-80
2021/09/21 03:10:49;;;;;;;15.38;7.80;;;;;;;11.33;83.21;96862.72;5003862;28;20037;-80
2021/09/21 03:18:27;;;;;;;14.85;7.60;;;;;;;11.50;82.07;96868.97;5018174;28;20179;-81
2021/09/21 03:20:55;;;;;;;16.38;8.52;;;;;;;11.41;82.01;96865.84;5000454;28;20052;-80
2021/09/21 03:23:20;;;;;;;;;;;;;;;11.42;82.53;96861.38;5001792;28;20038;-80
2021/09/21 03:25:46;;;;;;;15.60;7.97;;;;;;;11.34;82.73;96853.78;5018211;28;20396;-80
2021/09/21 03:28:11;;;;;;;17.15;7.80;;;;;;;11.41;83.11;96859.75;5017115;28;20468;-80
2021/09/21 03:30:37;;;;;;;16.08;8.23;;;;;;;11.35;83.10;96861.47;5017579;28;20097;-80
2021/09/21 03:33:05;;;;;;;15.10;7.20;;;;;;;11.43;83.25;96868.25;4999678;28;20556;-80
2021/09/21 03:35:32;;;;;;;;;;;;;;;11.26;83.25;96858.34;5018440;28;20033;-81
2021/09/21 03:37:57;;;;;;;15.88;7.82;;;;;;;11.33;83.59;96847.72;5018384;28;19921;-82
2021/09/21 03:40:23;;;;;;;16.23;7.97;;;;;;;11.43;83.88;96852.44;5016827;28;20461;-81
2021/09/21 03:42:52;;;;;;;17.88;8.52;;;;;;;11.39;83.14;96853.94;5017210;28;20025;-80
2021/09/21 03:45:17;;;;;;;15.15;7.88;;;;;;;11.42;82.76;96854.28;5009056;28;20038;-80
2021/09/21 03:47:43;;;;;;;16.40;8.00;;;;;;;11.30;83.09;96859.53;5016189;28;20109;-79
2021/09/21 03:50:09;;;;;;;15.02;7.78;;;;;;;11.23;82.94;96871.97;5016021;28;20106;-79
2021/09/21 03:52:37;;;;;;;16.15;8.25;;;;;;;11.37;82.61;96866.53;4999640;28;20148;-80
2021/09/21 03:55:04;;;;;;;15.23;7.97;;;;;;;11.23;82.92;96871.16;5016735;28;20100;-80
2021/09/21 03:57:32;;;;;;;15.65;7.85;;;;;;;11.21;83.17;96866.13;4998765;28;20055;-80
2021/09/21 03:59:57;;;;;;;16.27;8.15;;;;;;;11.26;83.30;96868.09;4998767;28;20058;-81
2021/09/21 04:02:25;;;;;;;16.40;8.07;;;;;;;11.30;83.78;96874.53;5017024;28;20138;-81
2021/09/21 04:04:51;;;;;;;15.18;7.90;;;;;;;11.18;83.51;96876.28;5016137;28;20050;-80
2021/09/21 04:07:17;;;;;;;16.40;8.40;;;;;;;11.17;83.62;96886.03;5015857;28;20100;-79
2021/09/21 04:09:44;;;;;;;16.58;8.32;;;;;;;11.21;83.55;96875.84;5014653;28;20042;-78
2021/09/21 04:12:09;;;;;;;15.82;7.38;;;;;;;11.32;83.08;96890.09;5014444;28;20046;-77
2021/09/21 04:14:35;;;;;;;14.60;7.70;;;;;;;11.33;83.44;96884.59;4996901;28;20387;-79
2021/09/21 04:17:00;;;;;;;16.48;8.82;;;;;;;11.18;83.92;96881.56;4998500;28;20038;-79
2021/09/21 04:19:26;;;;;;;17.30;8.02;;;;;;;11.28;83.63;96876.56;5004026;28;20041;-77
2021/09/21 04:21:54;;;;;;;14.63;7.55;;;;;;;11.17;83.62;96885.22;5036232;28;20050;-79
2021/09/21 04:24:20;;;;;;;16.25;7.43;;;;;;;11.20;84.49;96892.69;5036245;28;20045;-79
2021/09/21 04:26:47;;;;;;;15.93;7.70;;;;;;;11.23;84.70;96886.97;5006853;28;20046;-79
2021/09/21 04:29:12;;;;;;;15.23;8.47;;;;;;;11.17;83.94;96895.75;5018631;28;20038;-80
2021/09/21 04:31:42;;;;;;;16.77;7.78;;;;;;;11.18;84.14;96892.09;4999094;28;20341;-80
2021/09/21 04:34:12;;;;;;;17.95;7.93;;;;;;;11.17;83.99;96886.03;5016668;28;20029;-80
2021/09/21 04:36:38;;;;;;;19.95;8.65;;;;;;;11.11;84.80;96907.97;5017505;28;20069;-80
2021/09/21 04:39:06;;;;;;;17.13;8.13;;;;;;;11.13;84.84;96905.13;5016861;28;20034;-80
2021/09/21 04:41:32;;;;;;;14.43;7.72;;;;;;;11.21;84.42;96907.47;5018084;28;20038;-80
2021/09/21 04:43:59;;;;;;;16.92;7.40;;;;;;;11.19;84.09;96914.75;5023018;28;20094;-80
2021/09/21 04:46:25;;;;;;;15.25;8.15;;;;;;;11.40;84.29;96914.28;5013702;28;20064;-80
2021/09/21 04:48:51;;;;;;;15.88;7.82;;;;;;;11.30;83.82;96917.47;5017455;28;20041;-81
2021/09/21 04:51:17;;;;;;;17.63;8.13;;;;;;;11.16;83.94;96913.38;5002319;28;20034;-80
2021/09/21 04:53:42;;;;;;;16.58;8.75;;;;;;;11.01;85.16;96924.28;5020127;28;20057;-80
2021/09/21 04:56:08;;;;;;;15.20;8.05;;;;;;;11.12;84.64;96935.91;5016104;28;20053;-81
2021/09/21 04:58:36;;;;;;;16.80;8.20;;;;;;;11.12;85.08;96929.84;5017080;28;20044;-80
2021/09/21 05:01:03;;;;;;;16.40;8.10;;;;;;;11.13;84.97;96931.44;5019309;28;20050;-85
2021/09/21 05:03:29;;;;;;;16.88;8.35;;;;;;;11.28;85.11;96929.25;5003445;28;20068;-81
2021/09/21 05:05:54;;;;;;;16.13;8.35;;;;;;;11.15;84.46;96926.78;5000882;28;20042;-82
2021/09/21 05:08:20;;;;;;;16.30;7.93;;;;;;;11.21;85.11;96924.06;5019267;28;20514;-82
2021/09/21 05:10:46;;;;;;;20.23;8.57;;;;;;;11.28;85.46;96922.13;5017050;28;20410;-81
2021/09/21 05:13:13;;;;;;;16.55;8.02;;;;;;;11.27;84.84;96932.91;5021912;28;20038;-81
2021/09/21 05:15:39;;;;;;;15.70;8.18;;;;;;;11.21;84.76;96939.84;5020808;28;20045;-79
2021/09/21 05:18:06;;;;;;;15.93;7.90;;;;;;;11.27;84.55;96936.34;4998171;28;20470;-78
2021/09/21 05:20:32;;;;;;;14.80;7.33;;;;;;;11.39;83.33;96948.75;5006998;28;20082;-82
2021/09/21 05:23:02;;;;;;;16.33;7.88;;;;;;;11.39;83.54;96952.19;5019610;28;20638;-82
2021/09/21 05:25:30;;;;;;;14.38;7.35;;;;;;;11.44;83.52;96959.44;5018607;28;20034;-80
2021/09/21 05:27:55;;;;;;;;;;;;;;;11.40;84.37;96968.78;5025001;28;20041;-76
2021/09/21 05:30:23;;;;;;;17.63;7.72;;;;;;;11.47;83.78;96972.16;5024752;28;20008;-76
2021/09/21 05:32:49;;;;;;;16.33;7.70;;;;;;;11.64;82.54;96981.06;5020123;28;20383;-76
2021/09/21 05:35:16;;;;;;;15.82;8.02;;;;;;;11.48;82.32;96981.69;5018823;28;20060;-76
2021/09/21 05:37:41;;;;;;;16.20;7.78;;;;;;;11.61;81.57;96989.41;5020162;28;20056;-76
2021/09/21 05:40:08;;;;;;;15.95;7.75;;;;;;;11.51;81.64;96994.38;5018229;28;20058;-78
2021/09/21 05:42:36;;;;;;;17.45;7.72;;;;;;;11.56;81.52;97000.59;5019129;28;20066;-76
2021/09/21 05:45:03;;;;;;;16.30;8.20;;;;;;;11.60;80.80;97000.97;5020394;28;20049;-77
2021/09/21 05:47:29;;;;;;;18.57;8.10;;;;;;;11.52;81.24;96994.19;5036406;28;20042;-76
2021/09/21 05:49:54;;;;;;;14.80;7.50;;;;;;;11.36;81.51;97001.91;5037281;28;20048;-77
2021/09/21 05:52:21;;;;;;;15.57;7.55;;;;;;;11.33;81.69;97011.03;5021943;28;20037;-77
2021/09/21 05:54:47;;;;;;;15.00;7.88;;;;;;;11.38;81.65;97013.00;5019709;28;20046;-78
2021/09/21 05:57:13;;;;;;;17.20;8.25;;;;;;;11.37;82.08;97017.47;5019621;28;20160;-78
2021/09/21 05:59:38;;;;;;;15.73;7.60;;;;;;;11.25;81.50;97020.03;5019841;28;20045;-78
2021/09/21 06:02:04;;;;;;;14.35;7.35;;;;;;;11.34;81.76;97023.16;5019614;28;20093;-78
2021/09/21 06:04:29;;;;;;;19.08;8.98;;;;;;;11.24;82.31;97023.69;5019261;28;20046;-78
2021/09/21 06:06:55;;;;;;;19.48;7.90;;;;;;;11.30;82.16;97022.81;5019194;28;20045;-78
2021/09/21 06:09:22;;;;;;;15.82;8.23;;;;;;;11.45;81.74;97032.97;5019423;28;20042;-79
2021/09/21 06:11:48;;;;;;;15.00;7.47;;;;;;;11.46;82.11;97033.75;5024970;28;20045;-78
2021/09/21 06:14:16;;;;;;;15.45;8.10;;;;;;;11.30;81.76;97036.00;5020774;28;20050;-76
2021/09/21 06:16:44;;;;;;;16.02;8.05;;;;;;;11.33;82.06;97042.63;5020704;28;20498;-77
2021/09/21 06:19:10;;;;;;;16.25;8.20;;;;;;;11.40;82.12;97047.81;5019114;28;20045;-78
2021/09/21 06:21:38;;;;;;;15.02;7.97;;;;;;;11.41;81.81;97047.63;5022858;28;20231;-78
2021/09/21 06:24:06;;;;;;;16.73;8.50;;;;;;;11.43;81.67;97057.94;5001996;28;20042;-78
2021/09/21 06:26:33;;;;;;;15.35;8.45;;;;;;;11.21;82.65;97054.94;5019326;28;20141;-78
2021/09/21 06:28:59;;;;;;;17.10;7.97;;;;;;;11.32;83.42;97061.31;5018343;28;20049;-77
2021/09/21 06:31:25;;;;;;;18.55;8.45;;;;;;;11.30;82.93;97062.31;5020647;28;20041;-78
2021/09/21 06:33:53;;;;;;;16.70;8.63;;;;;;;11.36;82.71;97057.22;5019984;28;20098;-78
2021/09/21 06:36:19;;;;;;;;;;;;;;;11.55;82.67;97053.53;5018936;28;20125;-78
2021/09/21 06:38:44;;;;;;;16.45;7.90;;;;;;;11.50;82.79;97058.66;5001394;28;19951;-78
2021/09/21 06:41:10;;;;;;;20.15;8.98;;;;;;;11.47;82.21;97054.63;5018341;28;20042;-78
2021/09/21 06:43:37;;;;;;;14.40;7.82;;;;;;;11.56;82.06;97044.59;5010146;28;20046;-78
2021/09/21 06:46:03;;;;;;;18.20;8.70;;;;;;;11.55;82.18;97050.88;5019389;28;20041;-78
2021/09/21 06:48:28;;;;;;;15.98;8.68;;;;;;;11.42;82.43;97043.97;5021060;28;20116;-78
2021/09/21 06:50:54;;;;;;;16.08;8.18;;;;;;;11.44;82.73;97043.72;5017998;28;20045;-78
2021/09/21 06:53:23;;;;;;;17.02;8.00;;;;;;;11.48;82.83;97040.44;5028242;28;20034;-78
2021/09/21 06:55:48;;;;;;;15.75;8.98;;;;;;;11.74;81.69;97038.50;5008034;28;20114;-78
2021/09/21 06:58:14;;;;;;;19.23;8.32;;;;;;;11.65;82.11;97039.84;5002982;28;20065;-76
2021/09/21 07:00:43;;;;;;;16.10;8.32;;;;;;;11.69;81.78;97041.81;5016972;28;20046;-77
2021/09/21 07:03:08;;;;;;;20.88;9.30;;;;;;;11.80;80.69;97041.06;5019251;28;20478;-77
2021/09/21 07:05:34;;;;;;;15.82;8.02;;;;;;;11.71;80.34;97054.75;5001717;28;20025;-78
2021/09/21 07:08:00;;;;;;;17.48;8.30;;;;;;;11.73;80.34;97048.25;5018846;28;20117;-77
2021/09/21 07:10:26;;;;;;;16.63;8.45;;;;;;;11.83;80.54;97055.63;5019379;28;20046;-77
2021/09/21 07:12:52;;;;;;;17.73;8.50;;;;;;;11.92;80.47;97062.22;5018963;28;20104;-77
2021/09/21 07:15:22;;;;;;;16.13;8.30;;;;;;;12.14;79.12;97059.91;5019309;28;20037;-78
2021/09/21 07:17:52;;;;;;;16.70;9.20;;;;;;;12.26;79.17;97060.72;5002451;28;20041;-78
2021/09/21 07:20:20;;;;;;;16.30;7.75;;;;;;;12.49;78.06;97072.41;5021234;28;20379;-78
2021/09/21 07:22:46;;;;;;;16.08;9.55;;;;;;;12.04;78.66;97080.72;5020123;28;20046;-78
2021/09/21 07:25:11;;;;;;;15.95;7.85;;;;;;;12.30;78.06;97088.28;5018607;28;20068;-77
2021/09/21 07:27:40;;;;;;;14.45;8.00;;;;;;;12.35;77.35;97088.41;5000314;28;20209;-78
2021/09/21 07:30:07;;;;;;;15.40;7.80;;;;;;;12.08;77.89;97100.34;5000360;28;20090;-78
2021/09/21 07:32:33;;;;;;;14.77;8.25;;;;;;;12.01;78.08;97095.16;5019588;28;20057;-78
2021/09/21 07:35:01;;;;;;;15.10;7.80;;;;;;;12.34;76.69;97102.63;5018186;28;20038;-78
2021/09/21 07:37:26;;;;;;;15.15;8.40;;;;;;;12.34;76.29;97102.63;5000163;28;20132;-76
2021/09/21 07:39:55;;;;;;;16.17;7.53;;;;;;;12.52;75.59;97104.41;5018765;28;20061;-78
2021/09/21 07:42:21;;;;;;;17.10;8.27;;;;;;;12.89;74.27;97112.16;5019397;28;20037;-79
2021/09/21 07:44:47;;;;;;;16.05;7.70;;;;;;;12.94;72.76;97119.41;5018790;28;20472;-76
2021/09/21 07:47:14;;;;;;;14.13;8.05;;;;;;;13.28;70.75;97118.63;5016918;28;20082;-77
2021/09/21 07:49:42;;;;;;;15.27;8.05;;;;;;;12.79;72.37;97120.63;5022166;28;20109;-79
2021/09/21 07:52:10;;;;;;;14.85;7.40;;;;;;;12.99;71.70;97124.81;5020020;28;20052;-78
2021/09/21 07:54:35;;;;;;;13.82;7.28;;;;;;;13.40;71.25;97121.28;5018377;28;20054;-78
2021/09/21 07:57:02;;;;;;;15.50;7.30;;;;;;;13.22;71.36;97130.13;5047459;23;20080;-86
2021/09/21 07:59:28;;;;;;;15.32;7.63;;;;;;;13.47;69.97;97137.03;5046251;28;20041;-88
2021/09/21 08:01:54;;;;;;;15.63;8.43;;;;;;;13.31;69.92;97136.69;5053539;28;20037;-86
2021/09/21 08:04:20;;;;;;;14.65;7.68;;;;;;;13.72;68.64;97134.94;5035765;28;20049;-85
2021/09/21 08:06:46;;;;;;;13.98;7.90;;;;;;;13.80;68.73;97139.84;5034414;28;20056;-86
2021/09/21 08:09:14;;;;;;;14.68;7.60;;;;;;;13.91;67.76;97139.00;5051373;28;20076;-86
2021/09/21 08:11:40;;;;;;;18.83;8.20;;;;;;;13.80;68.02;97142.50;5049310;28;20044;-87
2021/09/21 08:14:06;;;;;;;15.02;7.90;;;;;;;13.99;67.40;97144.97;5047935;28;20046;-85
2021/09/21 08:16:38;;;;;;;14.02;8.10;;;;;;;14.11;66.45;97143.13;5052367;28;20030;-86
2021/09/21 08:19:04;;;;;;;14.40;7.72;;;;;;;13.65;68.43;97134.22;5036535;28;20059;-86
2021/09/21 08:21:30;;;;;;;14.45;7.88;;;;;;;13.71;68.05;97140.44;5039813;28;20057;-87
2021/09/21 08:23:56;;;;;;;14.77;8.05;;;;;;;13.78;68.15;97151.72;5040931;28;20030;-87
2021/09/21 08:26:24;;;;;;;15.35;8.10;;;;;;;13.90;68.46;97155.94;5053650;28;20091;-87
2021/09/21 08:28:50;;;;;;;15.73;8.63;;;;;;;13.57;68.59;97161.03;5040321;28;20049;-85
2021/09/21 08:31:18;;;;;;;15.05;8.00;;;;;;;14.14;67.11;97147.91;5038463;28;20056;-86
2021/09/21 08:33:44;;;;;;;16.45;8.35;;;;;;;14.64;65.89;97152.59;5053261;28;20050;-87
2021/09/21 08:36:12;;;;;;;16.85;7.90;;;;;;;14.99;65.35;97148.94;5053340;28;20045;-86
2021/09/21 08:38:38;;;;;;;12.75;7.10;;;;;;;14.84;62.97;97157.44;5052730;28;20018;-86
2021/09/21 08:41:04;;;;;;;15.68;7.95;;;;;;;15.13;63.65;97158.19;5034434;28;20110;-85
2021/09/21 08:43:32;;;;;;;14.70;7.45;;;;;;;14.85;62.91;97166.97;5044737;28;20497;-86
2021/09/21 08:46:03;;;;;;;15.10;7.10;;;;;;;14.84;62.19;97168.81;5047269;28;20042;-85
2021/09/21 08:48:29;;;;;;;12.93;7.07;;;;;;;14.91;62.78;97169.50;5026503;28;20505;-87
2021/09/21 08:50:56;;;;;;;13.75;8.00;;;;;;;14.77;61.66;97178.78;5035330;28;20053;-86
2021/09/21 08:53:22;;;;;;;13.65;7.40;;;;;;;15.34;61.16;97178.66;5050995;28;20034;-85
2021/09/21 08:55:48;;;;;;;14.40;7.57;;;;;;;15.23;60.25;97185.66;5046267;28;20091;-86
2021/09/21 08:58:16;;;;;;;12.40;7.15;;;;;;;14.60;62.47;97186.69;5044998;28;20061;-86
2021/09/21 09:00:44;;;;;;;13.57;7.47;;;;;;;14.51;63.22;97187.28;5028793;28;20045;-86
2021/09/21 09:03:12;;;;;;;16.65;7.75;;;;;;;14.89;63.88;97186.66;5049312;28;20049;-86
2021/09/21 09:05:42;;;;;;;12.75;6.75;;;;;;;14.79;63.34;97179.31;5054069;28;20041;-87
2021/09/21 09:08:08;;;;;;;14.43;7.50;;;;;;;14.69;64.35;97176.53;5033508;28;20045;-86
2021/09/21 09:10:34;;;;;;;13.55;7.40;;;;;;;14.88;63.75;97177.91;5053530;28;20029;-86
2021/09/21 09:12:59;;;;;;;15.73;8.35;;;;;;;14.72;62.52;97186.63;5055788;28;20052;-86
2021/09/21 09:15:26;;;;;;;14.15;7.70;;;;;;;14.58;64.20;97190.59;5047155;28;20061;-86
2021/09/21 09:17:55;;;;;;;16.92;7.55;;;;;;;14.75;62.97;97196.75;5054874;28;20085;-87
2021/09/21 09:20:33;;;;;;;13.70;7.05;;;;;;;14.80;62.86;97198.66;5035684;28;20053;-87
2021/09/21 09:23:01;;;;;;;;;;;;;;;15.00;61.56;97198.22;5052258;28;20041;-87
2021/09/21 09:25:27;;;;;;;15.18;7.57;;;;;;;15.29;60.29;97194.47;5054295;28;19948;-86
2021/09/21 09:27:53;;;;;;;14.93;7.80;;;;;;;15.36;59.13;97200.41;5037679;28;20197;-87
2021/09/21 09:30:22;;;;;;;13.63;7.70;;;;;;;14.94;59.90;97187.53;5032057;28;20041;-85
2021/09/21 09:32:52;;;;;;;13.75;6.90;;;;;;;14.77;60.36;97177.97;5028250;28;20132;-84
2021/09/21 09:35:27;;;;;;;11.98;6.95;;;;;;;14.99;59.88;97184.19;5048515;28;20037;-86
2021/09/21 09:37:54;;;;;;;12.48;7.25;;;;;;;15.20;59.72;97188.75;5059230;28;20105;-87
2021/09/21 09:40:22;;;;;;;12.98;7.10;;;;;;;15.26;57.64;97187.00;5059918;28;20034;-86
2021/09/21 09:42:49;;;;;;;12.65;7.28;;;;;;;15.16;57.81;97189.47;5053765;28;20038;-88
2021/09/21 09:45:27;;;;;;;13.57;7.75;;;;;;;14.88;58.71;97198.28;5054168;28;20029;-86
2021/09/21 09:47:53;;;;;;;;;;;;;;;15.34;56.87;97199.06;5035324;28;20049;-86
2021/09/21 09:50:28;;;;;;;11.63;6.60;;;;;;;15.28;56.92;97200.00;5036090;28;20059;-86
2021/09/21 09:53:04;;;;;;;12.02;6.07;;;;;;;15.61;56.04;97200.00;5032346;28;20084;-86
2021/09/21 09:55:32;;;;;;;12.93;6.93;;;;;;;15.49;55.35;97194.78;5049374;28;20060;-86
2021/09/21 09:57:58;;;;;;;12.65;6.40;;;;;;;15.45;55.72;97196.31;5050601;28;20061;-89
2021/09/21 10:00:25;;;;;;;11.18;5.50;;;;;;;15.16;52.23;97198.22;5047133;28;20100;-86
2021/09/21 10:03:00;;;;;;;13.40;7.65;;;;;;;15.52;54.42;97195.34;5049459;28;20052;-87
2021/09/21 10:05:29;;;;;;;14.43;6.20;;;;;;;15.58;53.38;97204.97;5047338;28;20076;-86
2021/09/21 10:07:56;;;;;;;12.57;6.00;;;;;;;15.65;54.79;97208.28;5030278;28;20044;-85
2021/09/21 10:10:24;;;;;;;12.48;6.80;;;;;;;15.55;54.10;97205.44;5044662;28;20038;-87
2021/09/21 10:12:51;;;;;;;13.63;6.40;;;;;;;15.31;55.86;97204.84;5027661;28;20099;-86
2021/09/21 10:15:17;;;;;;;13.27;6.50;;;;;;;15.33;55.46;97203.53;5029039;28;20151;-86
2021/09/21 10:17:52;;;;;;;12.85;6.10;;;;;;;15.54;56.06;97198.53;5028864;28;20485;-87
2021/09/21 10:20:21;;;;;;;12.70;7.00;;;;;;;15.27;55.73;97203.69;5055873;28;20064;-86
2021/09/21 10:22:54;;;;;;;12.85;6.90;;;;;;;15.33;56.53;97202.72;5038120;28;20034;-86
2021/09/21 10:25:28;;;;;;;14.13;6.82;;;;;;;15.55;55.90;97200.16;5048535;28;20101;-86
2021/09/21 10:27:53;;;;;;;11.57;6.30;;;;;;;15.79;55.13;97214.88;5045386;28;20055;-87
2021/09/21 10:30:23;;;;;;;12.75;6.28;;;;;;;16.30;52.27;97212.88;5049829;28;20711;-86
2021/09/21 10:32:49;;;;;;;12.25;6.45;;;;;;;16.47;52.28;97210.97;5053469;28;20080;-86
2021/09/21 10:35:17;;;;;;;11.20;6.13;;;;;;;16.53;50.54;97217.13;5057087;28;20100;-86
2021/09/21 10:37:43;;;;;;;12.75;5.85;;;;;;;16.47;49.85;97213.63;5049189;28;20207;-86
2021/09/21 10:40:11;;;;;;;12.15;6.05;;;;;;;16.72;49.91;97214.97;5045512;28;20075;-86
2021/09/21 10:42:50;;;;;;;13.68;6.82;;;;;;;16.63;51.30;97216.41;5025822;28;20042;-86
2021/09/21 10:45:24;;;;;;;11.85;6.10;;;;;;;16.63;50.00;97219.06;5047080;28;20041;-86
2021/09/21 10:48:02;;;;;;;11.27;6.10;;;;;;;16.05;52.90;97205.41;5053828;28;20033;-86
2021/09/21 10:50:36;;;;;;;;;;;;;;;16.17;51.85;97210.59;5028840;28;20118;-88
2021/09/21 10:53:05;;;;;;;11.93;5.68;;;;;;;16.00;51.73;97208.78;5046575;28;19921;-85
2021/09/21 10:55:36;;;;;;;10.88;5.97;;;;;;;15.72;52.10;97223.00;5047676;28;20493;-86
2021/09/21 10:58:04;;;;;;;12.32;5.90;;;;;;;16.21;52.38;97215.16;5027871;28;20052;-87
2021/09/21 11:00:34;;;;;;;12.07;6.10;;;;;;;16.53;50.77;97228.56;5044614;28;20142;-86
2021/09/21 11:03:01;;;;;;;16.00;6.18;;;;;;;16.95;50.77;97217.34;5045615;28;20696;-87
2021/09/21 11:05:27;;;;;;;12.63;6.72;;;;;;;16.85;50.46;97214.59;5029121;28;20462;-87
2021/09/21 11:08:01;;;;;;;13.23;7.38;;;;;;;16.66;50.90;97200.00;5046737;28;20512;-86
2021/09/21 11:10:30;;;;;;;12.43;6.80;;;;;;;16.99;51.25;97188.38;5047283;28;20101;-86
2021/09/21 11:12:58;;;;;;;10.98;6.45;;;;;;;17.68;49.45;97187.56;5049401;28;20072;-87
2021/09/21 11:15:26;;;;;;;;;;;;;;;17.39;49.83;97195.91;5049951;28;20124;-86
2021/09/21 11:18:03;;;;;;;12.18;6.45;;;;;;;17.15;50.83;97184.00;5042737;28;19921;-87
2021/09/21 11:20:29;;;;;;;11.20;6.40;;;;;;;17.09;50.89;97193.00;5051075;28;20033;-86
2021/09/21 11:23:00;;;;;;;11.85;6.40;;;;;;;17.18;49.96;97197.59;5039423;28;20034;-86
2021/09/21 11:25:28;;;;;;;11.63;6.50;;;;;;;16.67;50.55;97199.72;5034918;28;20034;-86
2021/09/21 11:27:56;;;;;;;;;;;;;;;16.62;51.49;97198.88;5046631;28;20045;-86
2021/09/21 11:30:26;;;;;;;13.05;6.63;;;;;;;16.29;52.13;97195.34;5029105;28;19921;-86
2021/09/21 11:32:55;;;;;;;12.40;6.63;;;;;;;16.20;52.41;97196.84;5038853;28;20025;-87
2021/09/21 11:35:23;;;;;;;12.15;6.30;;;;;;;16.11;53.65;97195.66;5057608;28;20049;-87